Eagle Boston — 9VHI — position and weather

sailwx.info

Track history (hours):
 
Tides and Currents Weather Stations Pressure Air Temp Water Temp Dewpoint Dewpoint Depression Visibility Wind Speed Wind Dir Waves Ship Positions

Eagle Boston

Last reported at 2015-Mar-01 14:19 UTC. Time now 2015-Mar-04 12:46 UTC.
Position N 39°52' W 069°34'.

; draft 8.5 m.

Type: Tanker. MMSI: 564004000.

Date/timePositionNaut miles runAvg speedWind from/ knotsBaromVisibWave heightAir tempDewpointWater temp
2015-Mar-01 14:19N 39°52' W 069°34'1113.3
2015-Mar-01 13:30N 39°53' W 069°49'1313.9
2015-Mar-01 12:32N 39°52' W 070°06'1414.1
2015-Mar-01 11:33N 39°53' W 070°24'1414.3
2015-Mar-01 10:33N 39°52' W 070°43'1414.4
2015-Mar-01 09:34N 39°53' W 071°01'1514.4
2015-Mar-01 08:32N 39°52' W 071°20'1313.6
2015-Mar-01 07:33N 39°53' W 071°38'1313.4
2015-Mar-01 06:33N 39°54' W 071°55'1413.8
2015-Mar-01 05:33N 39°55' W 072°13'1413.5
2015-Mar-01 04:30N 39°57' W 072°31'1313.7
2015-Mar-01 03:32N 39°58' W 072°49'2813.1
2015-Mar-01 01:23N 40°05' W 073°24'1312.5
2015-Mar-01 00:22N 40°15' W 073°35'2 0.7
2015-Feb-28 22:12N 40°14' W 073°34'0 0.3
2015-Feb-28 21:24N 40°14' W 073°34'0 0.2
2015-Feb-28 20:18N 40°14' W 073°34'10 4.7
2015-Feb-28 18:12N 40°21' W 073°43'9 9.7
2015-Feb-28 17:15N 40°27' W 073°51'6 8.3
2015-Feb-28 16:33N 40°30' W 073°58'8 8.0
2015-Feb-28 15:33N 40°37' W 074°03'0 0.1
2015-Feb-28 14:29N 40°37' W 074°03'0 0.0
2015-Feb-28 13:29N 40°37' W 074°03'0 0.0
2015-Feb-28 12:29N 40°37' W 074°03'0 0.2
2015-Feb-28 11:29N 40°37' W 074°03'0 0.2
2015-Feb-28 10:33N 40°37' W 074°03'0 0.0
2015-Feb-28 09:30N 40°37' W 074°03'0 0.0
2015-Feb-28 08:33N 40°37' W 074°03'0 0.0
2015-Feb-28 07:33N 40°37' W 074°03'0 0.2
2015-Feb-28 06:33N 40°37' W 074°03'6 6.4
2015-Feb-28 05:33N 40°31' W 073°60'3 2.9
2015-Feb-28 04:33N 40°29' W 074°01'1010.1
2015-Feb-28 03:33N 40°29' W 074°15'5 4.0
2015-Feb-28 02:18N 40°34' W 074°13'3 4.0
2015-Feb-28 01:33N 40°37' W 074°12'1 0.9
2015-Feb-28 00:32N 40°38' W 074°12'0 0.0
2015-Feb-26 07:12N 40°38' W 074°12'1 2.1
2015-Feb-26 06:31N 40°39' W 074°11'5 5.4
2015-Feb-26 05:33N 40°39' W 074°04'9 8.0
2015-Feb-26 04:29N 40°31' W 073°59'9 9.3
2015-Feb-26 03:32N 40°27' W 073°48'22 6.7
2015-Feb-26 00:13N 40°27' W 073°19'1 0.7
2015-Feb-25 23:29N 40°27' W 073°20'8 3.3
2015-Feb-25 21:00N 40°24' W 073°30'8 3.8 180 / 201012.0 5.4 1.0-2.0-2.3 1.0
2015-Feb-25 19:00N 40°18' W 073°24'7 7.9 180 / 201010.0 5.4 1.0-1.0-1.1 1.0
2015-Feb-25 18:08N 40°24' W 073°27'3 0.7
2015-Feb-25 14:30N 40°23' W 073°30'1 0.5
2015-Feb-25 13:32N 40°23' W 073°31'1 0.6
2015-Feb-25 12:33N 40°23' W 073°31'1 0.6
2015-Feb-25 11:29N 40°23' W 073°32'1 0.7
2015-Feb-25 10:33N 40°23' W 073°31'7 7.1
2015-Feb-25 09:33N 40°30' W 073°29'1 1.0
2015-Feb-25 08:27N 40°29' W 073°30'1 0.8
2015-Feb-25 07:31N 40°29' W 073°31'1 0.7
2015-Feb-25 06:32N 40°29' W 073°32'1 0.6
2015-Feb-25 05:09N 40°28' W 073°33'0 0.5
2015-Feb-25 04:28N 40°28' W 073°33'1 0.6
2015-Feb-25 03:33N 40°27' W 073°33'1 0.7
2015-Feb-25 02:33N 40°26' W 073°33'1 0.9
2015-Feb-25 01:29N 40°25' W 073°32'1 0.9
2015-Feb-25 00:33N 40°25' W 073°32'1 0.8
2015-Feb-24 23:33N 40°24' W 073°31'1 0.6
2015-Feb-24 22:33N 40°24' W 073°30'610.2
2015-Feb-24 22:00N 40°18' W 073°30'512.3 180 / 51023.0 2.2 0.5-6.0-6.8 1.0
2015-Feb-24 21:33N 40°23' W 073°30'0 0.1
2015-Feb-24 20:23N 40°23' W 073°30'0 0.4
2015-Feb-24 19:31N 40°23' W 073°29'510.1
2015-Feb-24 19:00N 40°18' W 073°30'5 9.7 190 / 51023.010.8 0.5-6.0-10.9 2.0
2015-Feb-24 18:31N 40°23' W 073°30'0 0.2
2015-Feb-24 17:18N 40°22' W 073°30'1 0.4
2015-Feb-24 15:31N 40°22' W 073°29'1 0.7
2015-Feb-24 14:33N 40°21' W 073°29'1 0.6
2015-Feb-24 13:23N 40°21' W 073°29'3 0.3
2015-Feb-24 05:00N 40°18' W 073°30'5 9.3 320 / 201028.0 5.4 1.0 -11.3 2.0
2015-Feb-24 04:28N 40°22' W 073°33'0 0.4
2015-Feb-24 03:17N 40°22' W 073°33'8 1.3
2015-Feb-23 21:00N 40°18' W 073°24'0 0.0 320 / 211025.5 5.4 1.0-2.0-2.3 1.0
2015-Feb-23 18:00N 40°18' W 073°24'8 2.9 320 / 221025.5 5.4 1.5-1.0-1.1 1.0
2015-Feb-23 15:13N 40°25' W 073°30'2 0.8
2015-Feb-23 13:06N 40°26' W 073°29'0 0.8
2015-Feb-23 12:32N 40°27' W 073°29'1 0.8
2015-Feb-23 11:21N 40°27' W 073°29'0 0.6
2015-Feb-23 10:33N 40°28' W 073°28'1 0.4
2015-Feb-23 09:07N 40°28' W 073°29'0 0.5
2015-Feb-23 08:24N 40°29' W 073°29'1 0.8
2015-Feb-23 07:33N 40°29' W 073°30'1 0.9
2015-Feb-23 06:33N 40°28' W 073°31'5 8.2
2015-Feb-23 06:00N 40°24' W 073°30'410.3 1022.510.8 0.5 5.0 2.5 3.0
2015-Feb-23 05:33N 40°28' W 073°32'1 0.9
2015-Feb-23 04:33N 40°28' W 073°33'1 0.7
2015-Feb-23 03:33N 40°27' W 073°34'1 0.7
2015-Feb-23 02:33N 40°27' W 073°34'1 0.7
2015-Feb-23 01:33N 40°26' W 073°35'1 0.7
2015-Feb-23 00:33N 40°25' W 073°35'1 0.9
2015-Feb-22 23:33N 40°24' W 073°35'4 3.6
2015-Feb-22 22:32N 40°21' W 073°33'1 0.5
2015-Feb-22 21:32N 40°21' W 073°32'5 5.2
2015-Feb-22 20:33N 40°23' W 073°38'2 2.1
2015-Feb-22 19:30N 40°24' W 073°41'0 0.4
2015-Feb-22 18:33N 40°24' W 073°40'712.0
2015-Feb-22 18:00N 40°18' W 073°36'613.8 250 / 101022.0 2.2 1.0 5.0 2.5 2.0
2015-Feb-22 17:31N 40°24' W 073°40'1 0.6
2015-Feb-22 16:33N 40°23' W 073°39'3 0.4
2015-Feb-22 08:06N 40°26' W 073°38'4 0.5
2015-Feb-21 23:15N 40°23' W 073°36'1 1.3
2015-Feb-21 22:32N 40°22' W 073°36'7 6.7
2015-Feb-21 21:30N 40°28' W 073°31'1 0.4
2015-Feb-21 18:24N 40°29' W 073°29'2 0.7
2015-Feb-21 15:22N 40°26' W 073°30'1 0.6
2015-Feb-21 14:22N 40°26' W 073°30'1 0.7
2015-Feb-21 12:10N 40°24' W 073°30'1 0.7
2015-Feb-21 11:15N 40°24' W 073°30'0 0.5
2015-Feb-21 10:31N 40°23' W 073°30'0 0.4
2015-Feb-21 09:27N 40°23' W 073°29'1 0.4
2015-Feb-21 07:22N 40°23' W 073°30'1 0.9
2015-Feb-21 06:08N 40°22' W 073°32'1 1.1
2015-Feb-21 05:31N 40°22' W 073°33'1 1.2
2015-Feb-21 04:22N 40°23' W 073°35'1 1.3
2015-Feb-21 03:29N 40°23' W 073°36'31 7.1
2015-Feb-20 23:04N 40°33' W 072°57'1 1.2
2015-Feb-20 22:33N 40°32' W 072°57'2 0.9
2015-Feb-20 20:17N 40°32' W 072°60'1 1.1
2015-Feb-20 19:14N 40°31' W 073°01'1 1.4
2015-Feb-20 18:29N 40°31' W 073°02'2 1.6
2015-Feb-20 17:17N 40°30' W 073°05'3 1.9
2015-Feb-20 15:30N 40°29' W 073°09'22 1.3
2015-Feb-19 22:12N 40°14' W 073°31'6 1.2
2015-Feb-19 17:17N 40°19' W 073°34'  
Track history (hours):
 
Tides and Currents Weather Stations Pressure Air Temp Water Temp Dewpoint Dewpoint Depression Visibility Wind Speed Wind Dir Waves Ship Positions

Eagle Boston

Last reported at 2015-Mar-01 14:19 UTC. Time now 2015-Mar-04 12:46 UTC.
Position N 39°52' W 069°34'.

; draft 8.5 m.

Type: Tanker. MMSI: 564004000.

Date/timePositionNaut miles runAvg speedWind from/ knotsBaromVisibWave heightAir tempDewpointWater temp
2015-Mar-01 14:19N 39°52' W 069°34'1113.3
2015-Mar-01 13:30N 39°53' W 069°49'1313.9
2015-Mar-01 12:32N 39°52' W 070°06'1414.1
2015-Mar-01 11:33N 39°53' W 070°24'1414.3
2015-Mar-01 10:33N 39°52' W 070°43'1414.4
2015-Mar-01 09:34N 39°53' W 071°01'1514.4
2015-Mar-01 08:32N 39°52' W 071°20'1313.6
2015-Mar-01 07:33N 39°53' W 071°38'1313.4
2015-Mar-01 06:33N 39°54' W 071°55'1413.8
2015-Mar-01 05:33N 39°55' W 072°13'1413.5
2015-Mar-01 04:30N 39°57' W 072°31'1313.7
2015-Mar-01 03:32N 39°58' W 072°49'2813.1
2015-Mar-01 01:23N 40°05' W 073°24'1312.5
2015-Mar-01 00:22N 40°15' W 073°35'2 0.7
2015-Feb-28 22:12N 40°14' W 073°34'0 0.3
2015-Feb-28 21:24N 40°14' W 073°34'0 0.2
2015-Feb-28 20:18N 40°14' W 073°34'10 4.7
2015-Feb-28 18:12N 40°21' W 073°43'9 9.7
2015-Feb-28 17:15N 40°27' W 073°51'6 8.3
2015-Feb-28 16:33N 40°30' W 073°58'8 8.0
2015-Feb-28 15:33N 40°37' W 074°03'0 0.1
2015-Feb-28 14:29N 40°37' W 074°03'0 0.0
2015-Feb-28 13:29N 40°37' W 074°03'0 0.0
2015-Feb-28 12:29N 40°37' W 074°03'0 0.2
2015-Feb-28 11:29N 40°37' W 074°03'0 0.2
2015-Feb-28 10:33N 40°37' W 074°03'0 0.0
2015-Feb-28 09:30N 40°37' W 074°03'0 0.0
2015-Feb-28 08:33N 40°37' W 074°03'0 0.0
2015-Feb-28 07:33N 40°37' W 074°03'0 0.2
2015-Feb-28 06:33N 40°37' W 074°03'6 6.4
2015-Feb-28 05:33N 40°31' W 073°60'3 2.9
2015-Feb-28 04:33N 40°29' W 074°01'1010.1
2015-Feb-28 03:33N 40°29' W 074°15'5 4.0
2015-Feb-28 02:18N 40°34' W 074°13'3 4.0
2015-Feb-28 01:33N 40°37' W 074°12'1 0.9
2015-Feb-28 00:32N 40°38' W 074°12'0 0.0
2015-Feb-26 07:12N 40°38' W 074°12'1 2.1
2015-Feb-26 06:31N 40°39' W 074°11'5 5.4
2015-Feb-26 05:33N 40°39' W 074°04'9 8.0
2015-Feb-26 04:29N 40°31' W 073°59'9 9.3
2015-Feb-26 03:32N 40°27' W 073°48'22 6.7
2015-Feb-26 00:13N 40°27' W 073°19'1 0.7
2015-Feb-25 23:29N 40°27' W 073°20'8 3.3
2015-Feb-25 21:00N 40°24' W 073°30'8 3.8 180 / 201012.0 5.4 1.0-2.0-2.3 1.0
2015-Feb-25 19:00N 40°18' W 073°24'7 7.9 180 / 201010.0 5.4 1.0-1.0-1.1 1.0
2015-Feb-25 18:08N 40°24' W 073°27'3 0.7
2015-Feb-25 14:30N 40°23' W 073°30'1 0.5
2015-Feb-25 13:32N 40°23' W 073°31'1 0.6
2015-Feb-25 12:33N 40°23' W 073°31'1 0.6
2015-Feb-25 11:29N 40°23' W 073°32'1 0.7
2015-Feb-25 10:33N 40°23' W 073°31'7 7.1
2015-Feb-25 09:33N 40°30' W 073°29'1 1.0
2015-Feb-25 08:27N 40°29' W 073°30'1 0.8
2015-Feb-25 07:31N 40°29' W 073°31'1 0.7
2015-Feb-25 06:32N 40°29' W 073°32'1 0.6
2015-Feb-25 05:09N 40°28' W 073°33'0 0.5
2015-Feb-25 04:28N 40°28' W 073°33'1 0.6
2015-Feb-25 03:33N 40°27' W 073°33'1 0.7
2015-Feb-25 02:33N 40°26' W 073°33'1 0.9
2015-Feb-25 01:29N 40°25' W 073°32'1 0.9
2015-Feb-25 00:33N 40°25' W 073°32'1 0.8
2015-Feb-24 23:33N 40°24' W 073°31'1 0.6
2015-Feb-24 22:33N 40°24' W 073°30'610.2
2015-Feb-24 22:00N 40°18' W 073°30'512.3 180 / 51023.0 2.2 0.5-6.0-6.8 1.0
2015-Feb-24 21:33N 40°23' W 073°30'0 0.1
2015-Feb-24 20:23N 40°23' W 073°30'0 0.4
2015-Feb-24 19:31N 40°23' W 073°29'510.1
2015-Feb-24 19:00N 40°18' W 073°30'5 9.7 190 / 51023.010.8 0.5-6.0-10.9 2.0
2015-Feb-24 18:31N 40°23' W 073°30'0 0.2
2015-Feb-24 17:18N 40°22' W 073°30'1 0.4
2015-Feb-24 15:31N 40°22' W 073°29'1 0.7
2015-Feb-24 14:33N 40°21' W 073°29'1 0.6
2015-Feb-24 13:23N 40°21' W 073°29'3 0.3
2015-Feb-24 05:00N 40°18' W 073°30'5 9.3 320 / 201028.0 5.4 1.0 -11.3 2.0
2015-Feb-24 04:28N 40°22' W 073°33'0 0.4
2015-Feb-24 03:17N 40°22' W 073°33'8 1.3
2015-Feb-23 21:00N 40°18' W 073°24'0 0.0 320 / 211025.5 5.4 1.0-2.0-2.3 1.0
2015-Feb-23 18:00N 40°18' W 073°24'8 2.9 320 / 221025.5 5.4 1.5-1.0-1.1 1.0
2015-Feb-23 15:13N 40°25' W 073°30'2 0.8
2015-Feb-23 13:06N 40°26' W 073°29'0 0.8
2015-Feb-23 12:32N 40°27' W 073°29'1 0.8
2015-Feb-23 11:21N 40°27' W 073°29'0 0.6
2015-Feb-23 10:33N 40°28' W 073°28'1 0.4
2015-Feb-23 09:07N 40°28' W 073°29'0 0.5
2015-Feb-23 08:24N 40°29' W 073°29'1 0.8
2015-Feb-23 07:33N 40°29' W 073°30'1 0.9
2015-Feb-23 06:33N 40°28' W 073°31'5 8.2
2015-Feb-23 06:00N 40°24' W 073°30'410.3 1022.510.8 0.5 5.0 2.5 3.0
2015-Feb-23 05:33N 40°28' W 073°32'1 0.9
2015-Feb-23 04:33N 40°28' W 073°33'1 0.7
2015-Feb-23 03:33N 40°27' W 073°34'1 0.7
2015-Feb-23 02:33N 40°27' W 073°34'1 0.7
2015-Feb-23 01:33N 40°26' W 073°35'1 0.7
2015-Feb-23 00:33N 40°25' W 073°35'1 0.9
2015-Feb-22 23:33N 40°24' W 073°35'4 3.6
2015-Feb-22 22:32N 40°21' W 073°33'1 0.5
2015-Feb-22 21:32N 40°21' W 073°32'5 5.2
2015-Feb-22 20:33N 40°23' W 073°38'2 2.1
2015-Feb-22 19:30N 40°24' W 073°41'0 0.4
2015-Feb-22 18:33N 40°24' W 073°40'712.0
2015-Feb-22 18:00N 40°18' W 073°36'613.8 250 / 101022.0 2.2 1.0 5.0 2.5 2.0
2015-Feb-22 17:31N 40°24' W 073°40'1 0.6
2015-Feb-22 16:33N 40°23' W 073°39'3 0.4
2015-Feb-22 08:06N 40°26' W 073°38'4 0.5
2015-Feb-21 23:15N 40°23' W 073°36'1 1.3
2015-Feb-21 22:32N 40°22' W 073°36'7 6.7
2015-Feb-21 21:30N 40°28' W 073°31'1 0.4
2015-Feb-21 18:24N 40°29' W 073°29'2 0.7
2015-Feb-21 15:22N 40°26' W 073°30'1 0.6
2015-Feb-21 14:22N 40°26' W 073°30'1 0.7
2015-Feb-21 12:10N 40°24' W 073°30'1 0.7
2015-Feb-21 11:15N 40°24' W 073°30'0 0.5
2015-Feb-21 10:31N 40°23' W 073°30'0 0.4
2015-Feb-21 09:27N 40°23' W 073°29'1 0.4
2015-Feb-21 07:22N 40°23' W 073°30'1 0.9
2015-Feb-21 06:08N 40°22' W 073°32'1 1.1
2015-Feb-21 05:31N 40°22' W 073°33'1 1.2
2015-Feb-21 04:22N 40°23' W 073°35'1 1.3
2015-Feb-21 03:29N 40°23' W 073°36'31 7.1
2015-Feb-20 23:04N 40°33' W 072°57'1 1.2
2015-Feb-20 22:33N 40°32' W 072°57'2 0.9
2015-Feb-20 20:17N 40°32' W 072°60'1 1.1
2015-Feb-20 19:14N 40°31' W 073°01'1 1.4
2015-Feb-20 18:29N 40°31' W 073°02'2 1.6
2015-Feb-20 17:17N 40°30' W 073°05'3 1.9
2015-Feb-20 15:30N 40°29' W 073°09'22 1.3
2015-Feb-19 22:12N 40°14' W 073°31'6 1.2
2015-Feb-19 17:17N 40°19' W 073°34'  

Dump ship's entire track history